Lenox, Michigan
Current Conditions -  °F | °C
As of 6:07 PM on Sunday 21 Dec 2014 (Local Time) from KMTC Reporting Station
Overcast Overcast  
Wind Chill: 23°   Ceiling: 2300
Heat Index: 30°   Visibility: 7mi
Dew Point: 27°   Wind: 8mph
Humidity: 86%   Direction: 160°SSE
Pressure: 30.22"   Gusts: NA
Location:  42.7851°N, 82.803°W
Report Text: KMTC 212307Z 16007KT 7SM BKN023 OVC060 M01/M03 A3022
Loading
Personal Weather Stations






























Interactive Weather Map New forecast layout! Learn more

10-Day Weather Forecast

Advertisements
Track Severe Weather on mobile